sensor_id;sensor_type;location;lat;lon;timestamp;pressure;altitude;pressure_sealevel;temperature;humidity
27202;BME280;14717;46.924;15.474;2023-05-14T00:01:30;98008.91;;;11.68;100.00
27202;BME280;14717;46.924;15.474;2023-05-14T00:03:55;98013.63;;;11.67;100.00
27202;BME280;14717;46.924;15.474;2023-05-14T00:06:20;98006.19;;;11.63;100.00
27202;BME280;14717;46.924;15.474;2023-05-14T00:08:46;98006.19;;;11.63;100.00
27202;BME280;14717;46.924;15.474;2023-05-14T00:11:11;97998.19;;;11.61;100.00
27202;BME280;14717;46.924;15.474;2023-05-14T00:13:37;97986.31;;;11.61;100.00
27202;BME280;14717;46.924;15.474;2023-05-14T00:16:02;97988.78;;;11.62;100.00
27202;BME280;14717;46.924;15.474;2023-05-14T00:18:28;97981.00;;;11.64;100.00
27202;BME280;14717;46.924;15.474;2023-05-14T00:20:53;97984.56;;;11.65;100.00
27202;BME280;14717;46.924;15.474;2023-05-14T00:23:22;97971.38;;;11.62;100.00
27202;BME280;14717;46.924;15.474;2023-05-14T00:25:48;97977.13;;;11.65;100.00
27202;BME280;14717;46.924;15.474;2023-05-14T00:28:14;97978.47;;;11.68;100.00
27202;BME280;14717;46.924;15.474;2023-05-14T00:30:39;97964.91;;;11.66;100.00
27202;BME280;14717;46.924;15.474;2023-05-14T00:33:05;97967.16;;;11.64;100.00
27202;BME280;14717;46.924;15.474;2023-05-14T00:35:30;97965.47;;;11.68;100.00
27202;BME280;14717;46.924;15.474;2023-05-14T00:37:57;97964.41;;;11.64;100.00
27202;BME280;14717;46.924;15.474;2023-05-14T00:40:25;97957.22;;;11.63;100.00
27202;BME280;14717;46.924;15.474;2023-05-14T00:42:51;97955.06;;;11.60;100.00
27202;BME280;14717;46.924;15.474;2023-05-14T00:45:17;97961.03;;;11.67;100.00
27202;BME280;14717;46.924;15.474;2023-05-14T00:47:43;97955.50;;;11.67;100.00
27202;BME280;14717;46.924;15.474;2023-05-14T00:50:09;97959.31;;;11.71;100.00
27202;BME280;14717;46.924;15.474;2023-05-14T00:52:36;97956.31;;;11.68;100.00
27202;BME280;14717;46.924;15.474;2023-05-14T00:55:06;97962.38;;;11.70;100.00
27202;BME280;14717;46.924;15.474;2023-05-14T00:57:35;97959.31;;;11.71;100.00
27202;BME280;14717;46.924;15.474;2023-05-14T01:00:02;97954.63;;;11.72;100.00
27202;BME280;14717;46.924;15.474;2023-05-14T01:02:27;97953.47;;;11.73;100.00
27202;BME280;14717;46.924;15.474;2023-05-14T01:04:53;97953.19;;;11.74;100.00
27202;BME280;14717;46.924;15.474;2023-05-14T01:09:54;97942.56;;;11.81;100.00
27202;BME280;14717;46.924;15.474;2023-05-14T01:12:45;97945.69;;;11.75;100.00
27202;BME280;14717;46.924;15.474;2023-05-14T01:15:20;97934.97;;;11.73;100.00
27202;BME280;14717;46.924;15.474;2023-05-14T01:17:49;97935.53;;;11.70;100.00
27202;BME280;14717;46.924;15.474;2023-05-14T01:20:16;97931.13;;;11.69;100.00
27202;BME280;14717;46.924;15.474;2023-05-14T01:22:41;97923.97;;;11.68;100.00
27202;BME280;14717;46.924;15.474;2023-05-14T01:25:07;97933.88;;;11.69;100.00
27202;BME280;14717;46.924;15.474;2023-05-14T01:27:46;97940.50;;;11.73;100.00
27202;BME280;14717;46.924;15.474;2023-05-14T01:32:50;97927.69;;;11.77;100.00
27202;BME280;14717;46.924;15.474;2023-05-14T01:35:17;97928.78;;;11.76;100.00
27202;BME280;14717;46.924;15.474;2023-05-14T01:37:43;97926.31;;;11.75;100.00
27202;BME280;14717;46.924;15.474;2023-05-14T01:40:10;97935.41;;;11.80;100.00
27202;BME280;14717;46.924;15.474;2023-05-14T01:42:36;97932.03;;;11.83;100.00
27202;BME280;14717;46.924;15.474;2023-05-14T01:45:02;97923.09;;;11.86;100.00
27202;BME280;14717;46.924;15.474;2023-05-14T01:47:28;97932.03;;;11.83;100.00
27202;BME280;14717;46.924;15.474;2023-05-14T01:49:53;97922.06;;;11.82;100.00
27202;BME280;14717;46.924;15.474;2023-05-14T01:52:18;97930.91;;;11.84;100.00
27202;BME280;14717;46.924;15.474;2023-05-14T01:54:46;97925.97;;;11.81;100.00
27202;BME280;14717;46.924;15.474;2023-05-14T01:57:11;97919.81;;;11.84;100.00
27202;BME280;14717;46.924;15.474;2023-05-14T01:59:37;97919.81;;;11.84;100.00
27202;BME280;14717;46.924;15.474;2023-05-14T02:02:02;97922.31;;;11.86;100.00
27202;BME280;14717;46.924;15.474;2023-05-14T02:04:28;97914.28;;;11.84;100.00
27202;BME280;14717;46.924;15.474;2023-05-14T02:06:53;97913.19;;;11.85;100.00
27202;BME280;14717;46.924;15.474;2023-05-14T02:09:18;97904.59;;;11.87;100.00
27202;BME280;14717;46.924;15.474;2023-05-14T02:11:44;97909.28;;;11.86;100.00
27202;BME280;14717;46.924;15.474;2023-05-14T02:14:10;97909.81;;;11.88;100.00
27202;BME280;14717;46.924;15.474;2023-05-14T02:16:36;97896.78;;;11.89;100.00
27202;BME280;14717;46.924;15.474;2023-05-14T02:19:01;97899.78;;;11.92;100.00
27202;BME280;14717;46.924;15.474;2023-05-14T02:21:27;97902.53;;;11.92;100.00
27202;BME280;14717;46.924;15.474;2023-05-14T02:23:52;97903.13;;;11.89;100.00
27202;BME280;14717;46.924;15.474;2023-05-14T02:26:17;97900.66;;;11.88;100.00
27202;BME280;14717;46.924;15.474;2023-05-14T02:28:43;97897.69;;;11.84;100.00
27202;BME280;14717;46.924;15.474;2023-05-14T02:31:09;97889.69;;;11.83;100.00
27202;BME280;14717;46.924;15.474;2023-05-14T02:33:35;97892.75;;;11.81;100.00
27202;BME280;14717;46.924;15.474;2023-05-14T02:36:00;97896.88;;;11.84;100.00
27202;BME280;14717;46.924;15.474;2023-05-14T02:38:26;97878.31;;;11.84;100.00
27202;BME280;14717;46.924;15.474;2023-05-14T02:40:51;97885.50;;;11.85;100.00
27202;BME280;14717;46.924;15.474;2023-05-14T02:43:17;97881.66;;;11.81;100.00
27202;BME280;14717;46.924;15.474;2023-05-14T02:45:42;97881.66;;;11.81;100.00
27202;BME280;14717;46.924;15.474;2023-05-14T02:48:07;97876.13;;;11.81;100.00
27202;BME280;14717;46.924;15.474;2023-05-14T02:50:33;97876.13;;;11.81;100.00
27202;BME280;14717;46.924;15.474;2023-05-14T02:52:58;97878.59;;;11.83;100.00
27202;BME280;14717;46.924;15.474;2023-05-14T02:55:24;97871.16;;;11.83;100.00
27202;BME280;14717;46.924;15.474;2023-05-14T02:57:51;97860.38;;;11.82;100.00
27202;BME280;14717;46.924;15.474;2023-05-14T03:00:18;97861.78;;;11.79;100.00
27202;BME280;14717;46.924;15.474;2023-05-14T03:02:43;97850.13;;;11.82;100.00
27202;BME280;14717;46.924;15.474;2023-05-14T03:05:08;97848.53;;;11.76;100.00
27202;BME280;14717;46.924;15.474;2023-05-14T03:07:34;97856.84;;;11.76;100.00
27202;BME280;14717;46.924;15.474;2023-05-14T03:09:59;97851.22;;;11.81;100.00
27202;BME280;14717;46.924;15.474;2023-05-14T03:12:25;97853.19;;;11.81;100.00
27202;BME280;14717;46.924;15.474;2023-05-14T03:14:51;97849.69;;;11.75;100.00
27202;BME280;14717;46.924;15.474;2023-05-14T03:17:17;97840.22;;;11.76;100.00
27202;BME280;14717;46.924;15.474;2023-05-14T03:19:42;97852.16;;;11.77;100.00
27202;BME280;14717;46.924;15.474;2023-05-14T03:22:08;97861.34;;;11.72;100.00
27202;BME280;14717;46.924;15.474;2023-05-14T03:24:36;97863.81;;;11.74;100.00
27202;BME280;14717;46.924;15.474;2023-05-14T03:27:02;97858.06;;;11.70;100.00
27202;BME280;14717;46.924;15.474;2023-05-14T03:29:28;97857.97;;;11.75;100.00
27202;BME280;14717;46.924;15.474;2023-05-14T03:31:54;97863.00;;;11.73;100.00
27202;BME280;14717;46.924;15.474;2023-05-14T03:34:20;97852.16;;;11.77;100.00
27202;BME280;14717;46.924;15.474;2023-05-14T03:36:45;97851.94;;;11.73;100.00
27202;BME280;14717;46.924;15.474;2023-05-14T03:39:11;97851.94;;;11.73;100.00
27202;BME280;14717;46.924;15.474;2023-05-14T03:41:40;97851.31;;;11.76;100.00
27202;BME280;14717;46.924;15.474;2023-05-14T03:44:05;97856.84;;;11.76;100.00
27202;BME280;14717;46.924;15.474;2023-05-14T03:46:32;97858.50;;;11.77;100.00
27202;BME280;14717;46.924;15.474;2023-05-14T03:49:01;97860.44;;;11.77;100.00
27202;BME280;14717;46.924;15.474;2023-05-14T03:51:27;97858.78;;;11.76;100.00
27202;BME280;14717;46.924;15.474;2023-05-14T03:53:53;97860.75;;;11.75;100.00
27202;BME280;14717;46.924;15.474;2023-05-14T03:56:19;97844.72;;;11.72;100.00
27202;BME280;14717;46.924;15.474;2023-05-14T03:58:46;97848.63;;;11.71;100.00
27202;BME280;14717;46.924;15.474;2023-05-14T04:01:12;97848.91;;;11.70;100.00
27202;BME280;14717;46.924;15.474;2023-05-14T04:03:37;97857.47;;;11.73;100.00
27202;BME280;14717;46.924;15.474;2023-05-14T04:06:03;97847.19;;;11.74;100.00
27202;BME280;14717;46.924;15.474;2023-05-14T04:08:28;97853.03;;;11.72;100.00
27202;BME280;14717;46.924;15.474;2023-05-14T04:10:54;97848.09;;;11.69;100.00
27202;BME280;14717;46.924;15.474;2023-05-14T04:13:19;97838.75;;;11.65;100.00
27202;BME280;14717;46.924;15.474;2023-05-14T04:15:45;97847.56;;;11.67;100.00
27202;BME280;14717;46.924;15.474;2023-05-14T04:18:11;97849.00;;;11.65;100.00
27202;BME280;14717;46.924;15.474;2023-05-14T04:20:37;97842.94;;;11.63;100.00
27202;BME280;14717;46.924;15.474;2023-05-14T04:23:02;97839.34;;;11.62;100.00
27202;BME280;14717;46.924;15.474;2023-05-14T04:25:28;97826.63;;;11.61;100.00
27202;BME280;14717;46.924;15.474;2023-05-14T04:27:54;97826.94;;;11.60;100.00
27202;BME280;14717;46.924;15.474;2023-05-14T04:30:19;97826.63;;;11.61;100.00
27202;BME280;14717;46.924;15.474;2023-05-14T04:32:45;97831.66;;;11.59;100.00
27202;BME280;14717;46.924;15.474;2023-05-14T04:35:10;97829.69;;;11.60;100.00
27202;BME280;14717;46.924;15.474;2023-05-14T04:37:37;97822.53;;;11.59;100.00
27202;BME280;14717;46.924;15.474;2023-05-14T04:40:03;97824.16;;;11.60;100.00
27202;BME280;14717;46.924;15.474;2023-05-14T04:42:30;97822.25;;;11.60;100.00
27202;BME280;14717;46.924;15.474;2023-05-14T04:44:55;97828.88;;;11.59;100.00
27202;BME280;14717;46.924;15.474;2023-05-14T04:47:20;97821.09;;;11.61;100.00
27202;BME280;14717;46.924;15.474;2023-05-14T04:49:46;97813.72;;;11.57;100.00
27202;BME280;14717;46.924;15.474;2023-05-14T04:52:12;97823.34;;;11.59;100.00
27202;BME280;14717;46.924;15.474;2023-05-14T04:54:38;97822.16;;;11.65;100.00
27202;BME280;14717;46.924;15.474;2023-05-14T04:57:03;97822.16;;;11.65;100.00
27202;BME280;14717;46.924;15.474;2023-05-14T04:59:29;97818.03;;;11.63;100.00
27202;BME280;14717;46.924;15.474;2023-05-14T05:01:55;97808.41;;;11.60;100.00
27202;BME280;14717;46.924;15.474;2023-05-14T05:04:20;97810.31;;;11.60;100.00
27202;BME280;14717;46.924;15.474;2023-05-14T05:06:48;97818.34;;;11.61;100.00
27202;BME280;14717;46.924;15.474;2023-05-14T05:09:13;97808.91;;;11.62;100.00
27202;BME280;14717;46.924;15.474;2023-05-14T05:11:39;97810.25;;;11.65;100.00
27202;BME280;14717;46.924;15.474;2023-05-14T05:14:04;97806.75;;;11.59;100.00
27202;BME280;14717;46.924;15.474;2023-05-14T05:16:30;97802.88;;;11.60;100.00
27202;BME280;14717;46.924;15.474;2023-05-14T05:18:55;97807.81;;;11.63;100.00
27202;BME280;14717;46.924;15.474;2023-05-14T05:21:20;97808.41;;;11.60;100.00
27202;BME280;14717;46.924;15.474;2023-05-14T05:23:46;97797.84;;;11.62;100.00
27202;BME280;14717;46.924;15.474;2023-05-14T05:26:11;97794.88;;;11.59;100.00
27202;BME280;14717;46.924;15.474;2023-05-14T05:28:37;97799.50;;;11.63;100.00
27202;BME280;14717;46.924;15.474;2023-05-14T05:31:02;97795.09;;;11.62;100.00
27202;BME280;14717;46.924;15.474;2023-05-14T05:33:27;97776.81;;;11.61;100.00
27202;BME280;14717;46.924;15.474;2023-05-14T05:35:53;97776.53;;;11.63;100.00
27202;BME280;14717;46.924;15.474;2023-05-14T05:38:18;97780.44;;;11.62;100.00
27202;BME280;14717;46.924;15.474;2023-05-14T05:40:44;97785.69;;;11.63;100.00
27202;BME280;14717;46.924;15.474;2023-05-14T05:43:09;97785.69;;;11.63;100.00
27202;BME280;14717;46.924;15.474;2023-05-14T05:45:35;97789.16;;;11.69;100.00
27202;BME280;14717;46.924;15.474;2023-05-14T05:48:01;97798.88;;;11.66;100.00
27202;BME280;14717;46.924;15.474;2023-05-14T05:50:26;97792.44;;;11.71;100.00
27202;BME280;14717;46.924;15.474;2023-05-14T05:52:51;97790.41;;;11.76;100.00
27202;BME280;14717;46.924;15.474;2023-05-14T05:55:17;97789.38;;;11.72;100.00
27202;BME280;14717;46.924;15.474;2023-05-14T05:57:43;97792.59;;;11.79;100.00
27202;BME280;14717;46.924;15.474;2023-05-14T06:00:09;97783.78;;;11.77;100.00
27202;BME280;14717;46.924;15.474;2023-05-14T06:02:37;97788.19;;;11.78;100.00
27202;BME280;14717;46.924;15.474;2023-05-14T06:05:04;97777.13;;;11.78;100.00
27202;BME280;14717;46.924;15.474;2023-05-14T06:07:29;97781.00;;;11.77;100.00
27202;BME280;14717;46.924;15.474;2023-05-14T06:09:55;97764.41;;;11.77;100.00
27202;BME280;14717;46.924;15.474;2023-05-14T06:12:20;97770.13;;;11.81;100.00
27202;BME280;14717;46.924;15.474;2023-05-14T06:14:45;97758.25;;;11.80;100.00
27202;BME280;14717;46.924;15.474;2023-05-14T06:17:11;97756.31;;;11.81;100.00
27202;BME280;14717;46.924;15.474;2023-05-14T06:19:36;97756.59;;;11.79;100.00
27202;BME280;14717;46.924;15.474;2023-05-14T06:22:02;97744.94;;;11.82;100.00
27202;BME280;14717;46.924;15.474;2023-05-14T06:24:27;97753.31;;;11.77;100.00
27202;BME280;14717;46.924;15.474;2023-05-14T06:26:52;97759.88;;;11.81;100.00
27202;BME280;14717;46.924;15.474;2023-05-14T06:29:18;97765.41;;;11.81;100.00
27202;BME280;14717;46.924;15.474;2023-05-14T06:31:43;97758.25;;;11.80;100.00
27202;BME280;14717;46.924;15.474;2023-05-14T06:34:08;97753.53;;;11.81;100.00
27202;BME280;14717;46.924;15.474;2023-05-14T06:36:34;97751.66;;;11.76;100.00
27202;BME280;14717;46.924;15.474;2023-05-14T06:39:00;97749.66;;;11.82;100.00
27202;BME280;14717;46.924;15.474;2023-05-14T06:41:25;97748.50;;;11.83;100.00
27202;BME280;14717;46.924;15.474;2023-05-14T06:43:51;97741.06;;;11.83;100.00
27202;BME280;14717;46.924;15.474;2023-05-14T06:46:16;97740.22;;;11.83;100.00
27202;BME280;14717;46.924;15.474;2023-05-14T06:48:42;97733.25;;;11.85;100.00
27202;BME280;14717;46.924;15.474;2023-05-14T06:51:07;97723.81;;;11.86;100.00
27202;BME280;14717;46.924;15.474;2023-05-14T06:53:33;97728.31;;;11.82;100.00
27202;BME280;14717;46.924;15.474;2023-05-14T06:55:58;97724.09;;;11.85;100.00
27202;BME280;14717;46.924;15.474;2023-05-14T06:58:24;97728.31;;;11.82;100.00
27202;BME280;14717;46.924;15.474;2023-05-14T07:00:49;97725.47;;;11.87;100.00
27202;BME280;14717;46.924;15.474;2023-05-14T07:03:14;97721.59;;;11.88;100.00
27202;BME280;14717;46.924;15.474;2023-05-14T07:05:40;97735.34;;;11.93;100.00
27202;BME280;14717;46.924;15.474;2023-05-14T07:08:05;97731.03;;;12.00;100.00
27202;BME280;14717;46.924;15.474;2023-05-14T07:10:31;97744.16;;;11.95;100.00
27202;BME280;14717;46.924;15.474;2023-05-14T07:12:56;97739.53;;;12.04;100.00
27202;BME280;14717;46.924;15.474;2023-05-14T07:15:22;97735.88;;;12.08;100.00
27202;BME280;14717;46.924;15.474;2023-05-14T07:17:47;97734.91;;;11.99;100.00
27202;BME280;14717;46.924;15.474;2023-05-14T07:20:13;97723.44;;;12.06;100.00
27202;BME280;14717;46.924;15.474;2023-05-14T07:22:38;97723.22;;;12.02;100.00
27202;BME280;14717;46.924;15.474;2023-05-14T07:25:04;97725.28;;;11.97;100.00
27202;BME280;14717;46.924;15.474;2023-05-14T07:27:30;97726.94;;;11.98;100.00
27202;BME280;14717;46.924;15.474;2023-05-14T07:29:55;97723.03;;;11.99;100.00
27202;BME280;14717;46.924;15.474;2023-05-14T07:32:21;97723.63;;;11.96;100.00
27202;BME280;14717;46.924;15.474;2023-05-14T07:34:46;97726.09;;;11.97;100.00
27202;BME280;14717;46.924;15.474;2023-05-14T07:37:11;97723.53;;;12.01;100.00
27202;BME280;14717;46.924;15.474;2023-05-14T07:39:37;97726.94;;;11.98;100.00
27202;BME280;14717;46.924;15.474;2023-05-14T07:42:03;97728.56;;;11.99;100.00
27202;BME280;14717;46.924;15.474;2023-05-14T07:44:28;97713.28;;;11.88;100.00
27202;BME280;14717;46.924;15.474;2023-05-14T07:46:54;97715.28;;;11.83;100.00
27202;BME280;14717;46.924;15.474;2023-05-14T07:49:19;97711.13;;;11.85;100.00
27202;BME280;14717;46.924;15.474;2023-05-14T07:51:45;97704.72;;;11.85;100.00
27202;BME280;14717;46.924;15.474;2023-05-14T07:54:10;97702.31;;;11.83;100.00
27202;BME280;14717;46.924;15.474;2023-05-14T07:56:35;97695.63;;;11.84;100.00
27202;BME280;14717;46.924;15.474;2023-05-14T07:59:01;97706.00;;;11.92;100.00
27202;BME280;14717;46.924;15.474;2023-05-14T08:01:26;97700.47;;;11.92;100.00
27202;BME280;14717;46.924;15.474;2023-05-14T08:03:51;97699.94;;;11.90;100.00
27202;BME280;14717;46.924;15.474;2023-05-14T08:06:17;97696.03;;;11.91;100.00
27202;BME280;14717;46.924;15.474;2023-05-14T08:08:45;97689.28;;;11.97;100.00
27202;BME280;14717;46.924;15.474;2023-05-14T08:11:10;97687.94;;;11.94;100.00
27202;BME280;14717;46.924;15.474;2023-05-14T08:13:36;97688.78;;;11.95;100.00
27202;BME280;14717;46.924;15.474;2023-05-14T08:16:01;97680.97;;;11.97;100.00
27202;BME280;14717;46.924;15.474;2023-05-14T08:18:28;97680.38;;;12.00;100.00
27202;BME280;14717;46.924;15.474;2023-05-14T08:20:53;97676.66;;;11.91;100.00
27202;BME280;14717;46.924;15.474;2023-05-14T08:23:19;97675.84;;;11.90;100.00
27202;BME280;14717;46.924;15.474;2023-05-14T08:25:44;97677.59;;;11.87;100.00
27202;BME280;14717;46.924;15.474;2023-05-14T08:28:10;97682.94;;;11.83;100.00
27202;BME280;14717;46.924;15.474;2023-05-14T08:30:35;97671.97;;;11.91;100.00
27202;BME280;14717;46.924;15.474;2023-05-14T08:33:00;97676.44;;;11.88;100.00
27202;BME280;14717;46.924;15.474;2023-05-14T08:35:26;97669.00;;;11.88;100.00
27202;BME280;14717;46.924;15.474;2023-05-14T08:37:51;97660.59;;;11.93;100.00
27202;BME280;14717;46.924;15.474;2023-05-14T08:40:17;97663.22;;;11.85;100.00
27202;BME280;14717;46.924;15.474;2023-05-14T08:42:43;97653.91;;;11.94;100.00
27202;BME280;14717;46.924;15.474;2023-05-14T08:47:35;97650.44;;;11.89;100.00
27202;BME280;14717;46.924;15.474;2023-05-14T08:50:03;97645.78;;;11.84;100.00
27202;BME280;14717;46.924;15.474;2023-05-14T08:52:29;97649.81;;;11.91;100.00
27202;BME280;14717;46.924;15.474;2023-05-14T08:54:57;97639.25;;;11.80;100.00
27202;BME280;14717;46.924;15.474;2023-05-14T08:57:25;97643.84;;;11.85;100.00
27202;BME280;14717;46.924;15.474;2023-05-14T08:59:52;97639.66;;;11.87;100.00
27202;BME280;14717;46.924;15.474;2023-05-14T09:02:22;97641.22;;;11.93;100.00
27202;BME280;14717;46.924;15.474;2023-05-14T09:04:54;97640.16;;;11.89;100.00
27202;BME280;14717;46.924;15.474;2023-05-14T09:07:35;97637.91;;;11.91;100.00
27202;BME280;14717;46.924;15.474;2023-05-14T09:10:01;97641.31;;;11.88;100.00
27202;BME280;14717;46.924;15.474;2023-05-14T09:12:28;97641.22;;;11.93;100.00
27202;BME280;14717;46.924;15.474;2023-05-14T09:14:53;97641.81;;;11.90;100.00
27202;BME280;14717;46.924;15.474;2023-05-14T09:17:18;97635.13;;;11.91;100.00
27202;BME280;14717;46.924;15.474;2023-05-14T09:19:45;97639.34;;;12.02;100.00
27202;BME280;14717;46.924;15.474;2023-05-14T09:22:17;97640.91;;;12.08;100.00
27202;BME280;14717;46.924;15.474;2023-05-14T09:24:43;97636.19;;;12.08;100.00
27202;BME280;14717;46.924;15.474;2023-05-14T09:27:17;97635.88;;;12.10;100.00
27202;BME280;14717;46.924;15.474;2023-05-14T09:29:43;97629.94;;;12.16;100.00
27202;BME280;14717;46.924;15.474;2023-05-14T09:32:08;97630.84;;;11.98;100.00
27202;BME280;14717;46.924;15.474;2023-05-14T09:34:35;97613.00;;;11.91;100.00
27202;BME280;14717;46.924;15.474;2023-05-14T09:37:03;97616.59;;;11.91;100.00
27202;BME280;14717;46.924;15.474;2023-05-14T09:39:30;97611.25;;;11.82;100.00
27202;BME280;14717;46.924;15.474;2023-05-14T09:41:56;97614.75;;;11.87;100.00
27202;BME280;14717;46.924;15.474;2023-05-14T09:44:23;97617.50;;;11.87;100.00
27202;BME280;14717;46.924;15.474;2023-05-14T09:46:49;97617.31;;;11.84;100.00
27202;BME280;14717;46.924;15.474;2023-05-14T09:49:15;97598.84;;;11.92;100.00
27202;BME280;14717;46.924;15.474;2023-05-14T09:51:41;97594.75;;;11.90;100.00
27202;BME280;14717;46.924;15.474;2023-05-14T09:54:07;97596.78;;;11.85;100.00
27202;BME280;14717;46.924;15.474;2023-05-14T09:56:34;97578.03;;;11.95;100.00
27202;BME280;14717;46.924;15.474;2023-05-14T09:59:01;97584.06;;;12.10;100.00
27202;BME280;14717;46.924;15.474;2023-05-14T10:01:28;97588.38;;;12.16;100.00
27202;BME280;14717;46.924;15.474;2023-05-14T10:03:54;97589.19;;;12.17;100.00
27202;BME280;14717;46.924;15.474;2023-05-14T10:06:23;97574.63;;;12.25;100.00
27202;BME280;14717;46.924;15.474;2023-05-14T10:08:53;97581.28;;;12.24;100.00
27202;BME280;14717;46.924;15.474;2023-05-14T10:11:21;97576.38;;;12.34;100.00
27202;BME280;14717;46.924;15.474;2023-05-14T10:13:56;97583.31;;;12.32;100.00
27202;BME280;14717;46.924;15.474;2023-05-14T10:16:27;97590.50;;;12.46;100.00
27202;BME280;14717;46.924;15.474;2023-05-14T10:19:00;97588.41;;;12.51;100.00
27202;BME280;14717;46.924;15.474;2023-05-14T10:21:30;97584.28;;;12.62;100.00
27202;BME280;14717;46.924;15.474;2023-05-14T10:23:57;97583.03;;;12.33;100.00
27202;BME280;14717;46.924;15.474;2023-05-14T10:26:23;97598.31;;;12.17;100.00
27202;BME280;14717;46.924;15.474;2023-05-14T10:28:49;97593.50;;;12.23;100.00
27202;BME280;14717;46.924;15.474;2023-05-14T10:31:14;97587.03;;;12.27;100.00
27202;BME280;14717;46.924;15.474;2023-05-14T10:33:48;97581.91;;;12.34;100.00
27202;BME280;14717;46.924;15.474;2023-05-14T10:36:19;97573.78;;;12.37;100.00
27202;BME280;14717;46.924;15.474;2023-05-14T10:38:45;97570.78;;;12.47;100.00
27202;BME280;14717;46.924;15.474;2023-05-14T10:41:12;97568.75;;;12.39;100.00
27202;BME280;14717;46.924;15.474;2023-05-14T10:43:40;97559.53;;;12.31;100.00
27202;BME280;14717;46.924;15.474;2023-05-14T10:46:07;97560.75;;;12.38;100.00
27202;BME280;14717;46.924;15.474;2023-05-14T10:48:33;97560.22;;;12.49;100.00
27202;BME280;14717;46.924;15.474;2023-05-14T10:51:00;97557.81;;;12.56;100.00
27202;BME280;14717;46.924;15.474;2023-05-14T10:53:31;97547.16;;;12.50;100.00
27202;BME280;14717;46.924;15.474;2023-05-14T10:56:01;97540.66;;;12.32;100.00
27202;BME280;14717;46.924;15.474;2023-05-14T10:58:29;97529.16;;;12.39;100.00
27202;BME280;14717;46.924;15.474;2023-05-14T11:00:56;97513.03;;;12.41;100.00
27202;BME280;14717;46.924;15.474;2023-05-14T11:03:22;97506.41;;;12.50;100.00
27202;BME280;14717;46.924;15.474;2023-05-14T11:05:47;97497.72;;;12.43;100.00
27202;BME280;14717;46.924;15.474;2023-05-14T11:08:14;97500.63;;;12.38;100.00
27202;BME280;14717;46.924;15.474;2023-05-14T11:10:40;97506.38;;;12.29;100.00
27202;BME280;14717;46.924;15.474;2023-05-14T11:13:07;97511.19;;;12.36;100.00
27202;BME280;14717;46.924;15.474;2023-05-14T11:15:32;97502.53;;;12.51;100.00
27202;BME280;14717;46.924;15.474;2023-05-14T11:17:58;97511.75;;;12.47;100.00
27202;BME280;14717;46.924;15.474;2023-05-14T11:20:23;97518.63;;;12.28;100.00
27202;BME280;14717;46.924;15.474;2023-05-14T11:22:49;97525.38;;;12.22;100.00
27202;BME280;14717;46.924;15.474;2023-05-14T11:25:15;97527.38;;;12.08;100.00
27202;BME280;14717;46.924;15.474;2023-05-14T11:27:44;97531.69;;;12.00;100.00
27202;BME280;14717;46.924;15.474;2023-05-14T11:30:18;97518.34;;;12.02;100.00
27202;BME280;14717;46.924;15.474;2023-05-14T11:32:45;97518.16;;;11.99;100.00
27202;BME280;14717;46.924;15.474;2023-05-14T11:35:11;97515.50;;;11.81;100.00
27202;BME280;14717;46.924;15.474;2023-05-14T11:37:37;97515.63;;;11.76;100.00
27202;BME280;14717;46.924;15.474;2023-05-14T11:40:07;97515.72;;;11.84;100.00
27202;BME280;14717;46.924;15.474;2023-05-14T11:42:35;97519.09;;;11.81;100.00
27202;BME280;14717;46.924;15.474;2023-05-14T11:45:00;97509.78;;;11.77;100.00
27202;BME280;14717;46.924;15.474;2023-05-14T11:47:28;97507.91;;;11.86;100.00
27202;BME280;14717;46.924;15.474;2023-05-14T11:49:53;97513.13;;;11.88;100.00
27202;BME280;14717;46.924;15.474;2023-05-14T11:52:19;97506.28;;;11.85;100.00
27202;BME280;14717;46.924;15.474;2023-05-14T11:54:46;97502.16;;;11.96;100.00
27202;BME280;14717;46.924;15.474;2023-05-14T11:57:15;97506.66;;;12.05;100.00
27202;BME280;14717;46.924;15.474;2023-05-14T11:59:42;97514.28;;;11.87;100.00
27202;BME280;14717;46.924;15.474;2023-05-14T12:02:09;97511.22;;;11.88;100.00
27202;BME280;14717;46.924;15.474;2023-05-14T12:04:36;97502.47;;;11.81;100.00
27202;BME280;14717;46.924;15.474;2023-05-14T12:07:08;97493.75;;;11.88;100.00
27202;BME280;14717;46.924;15.474;2023-05-14T12:09:40;97498.88;;;11.94;100.00
27202;BME280;14717;46.924;15.474;2023-05-14T12:12:10;97496.44;;;11.92;100.00
27202;BME280;14717;46.924;15.474;2023-05-14T12:14:38;97494.81;;;11.91;100.00
27202;BME280;14717;46.924;15.474;2023-05-14T12:17:23;97482.81;;;11.69;100.00
27202;BME280;14717;46.924;15.474;2023-05-14T12:19:50;97482.44;;;11.62;100.00
27202;BME280;14717;46.924;15.474;2023-05-14T12:22:19;97471.84;;;11.78;100.00
27202;BME280;14717;46.924;15.474;2023-05-14T12:24:56;97470.31;;;11.85;100.00
27202;BME280;14717;46.924;15.474;2023-05-14T12:27:23;97472.84;;;11.95;100.00
27202;BME280;14717;46.924;15.474;2023-05-14T12:29:50;97472.66;;;11.91;100.00
27202;BME280;14717;46.924;15.474;2023-05-14T12:32:17;97465.84;;;11.97;100.00
27202;BME280;14717;46.924;15.474;2023-05-14T12:34:44;97469.97;;;12.00;100.00
27202;BME280;14717;46.924;15.474;2023-05-14T12:37:09;97472.47;;;11.88;100.00
27202;BME280;14717;46.924;15.474;2023-05-14T12:39:35;97479.94;;;11.88;100.00
27202;BME280;14717;46.924;15.474;2023-05-14T12:42:01;97479.22;;;11.82;100.00
27202;BME280;14717;46.924;15.474;2023-05-14T12:44:26;97482.88;;;11.91;100.00